Time;durP1;ratioP1;P1;durP2;ratioP2;P2;SDS_P1;SDS_P2;PMS_P1;PMS_P2;Temp;Humidity;BMP_temperature;BMP_pressure;BME280_temperature;BME280_humidity;BME280_pressure;Samples;Min_cycle;Max_cycle;Signal;HPM_P1;HPM_P2
2021/06/14 00:01:16;;;;;;;;;7.00;6.00;;;;;-147.17;100.00;59696.56;5031098;28;51122;-52
2021/06/14 00:03:42;;;;;;;;;6.67;5.67;;;;;-147.17;100.00;59696.56;5027342;28;51183;-50
2021/06/14 00:06:07;;;;;;;;;6.00;6.00;;;;;-147.17;100.00;59696.56;5034142;28;51265;-52
2021/06/14 00:08:33;;;;;;;;;6.00;6.00;;;;;-147.17;100.00;59696.56;5033422;28;51805;-49
2021/06/14 00:10:58;;;;;;;;;5.00;5.00;;;;;-147.17;100.00;59696.56;5033592;28;51022;-50
2021/06/14 00:13:26;;;;;;;;;6.00;5.33;;;;;-147.17;100.00;59696.56;5031216;28;51242;-54
2021/06/14 00:15:52;;;;;;;;;2.67;2.33;;;;;-147.17;100.00;59696.56;5032115;28;51265;-49
2021/06/14 00:18:19;;;;;;;;;4.33;3.67;;;;;-147.17;100.00;59696.56;5032961;28;52160;-51
2021/06/14 00:20:50;;;;;;;;;5.00;5.00;;;;;-147.17;100.00;59696.56;5033393;28;51087;-53
2021/06/14 00:23:15;;;;;;;;;5.67;5.00;;;;;-147.17;100.00;59696.56;5033370;28;51089;-58
2021/06/14 00:25:41;;;;;;;;;4.00;4.00;;;;;-147.17;100.00;59696.56;5031744;28;51308;-53
2021/06/14 00:28:06;;;;;;;;;5.00;5.00;;;;;-147.17;100.00;59696.56;5030000;28;52014;-50
2021/06/14 00:30:39;;;;;;;;;6.00;6.00;;;;;-147.17;100.00;59696.56;5028296;28;51122;-53
2021/06/14 00:33:05;;;;;;;;;4.00;3.67;;;;;-147.17;100.00;59696.56;5044417;28;51178;-51
2021/06/14 00:35:31;;;;;;;;;5.00;5.00;;;;;-147.17;100.00;59696.56;5032939;28;51247;-52
2021/06/14 00:37:56;;;;;;;;;5.00;5.00;;;;;-147.17;100.00;59696.56;5033004;28;51133;-50
2021/06/14 00:40:21;;;;;;;;;5.67;5.00;;;;;-147.17;100.00;59696.56;5033408;28;51026;-50
2021/06/14 00:42:48;;;;;;;;;4.00;4.00;;;;;-147.17;100.00;59696.56;5033083;28;51205;-52
2021/06/14 00:45:16;;;;;;;;;6.00;5.00;;;;;-147.17;100.00;59696.56;5033127;28;51282;-53
2021/06/14 00:47:46;;;;;;;;;6.67;6.67;;;;;-147.17;100.00;59696.56;5027533;28;52918;-52
2021/06/14 00:50:13;;;;;;;;;7.33;6.33;;;;;-147.17;100.00;59696.56;5031345;28;51050;-51
2021/06/14 00:52:39;;;;;;;;;6.00;6.00;;;;;-147.17;100.00;59696.56;5029007;28;51109;-53
2021/06/14 00:55:08;;;;;;;;;7.00;6.00;;;;;-147.17;100.00;59696.56;5033259;28;50880;-53
2021/06/14 00:57:33;;;;;;;;;6.33;6.33;;;;;-147.17;100.00;59696.56;5033119;28;51926;-52
2021/06/14 01:00:00;;;;;;;;;7.67;7.00;;;;;-147.17;100.00;59696.56;5033696;28;51213;-55
2021/06/14 01:02:25;;;;;;;;;6.00;6.00;;;;;-147.17;100.00;59696.56;5028201;28;51133;-54
2021/06/14 01:04:50;;;;;;;;;7.67;7.00;;;;;-147.17;100.00;59696.56;5028058;28;52602;-55
2021/06/14 01:07:16;;;;;;;;;8.00;7.00;;;;;-147.17;100.00;59696.56;5026522;28;51218;-53
2021/06/14 01:09:41;;;;;;;;;7.00;7.00;;;;;-147.17;100.00;59696.56;5035303;28;51281;-52
2021/06/14 01:12:13;;;;;;;;;9.33;9.00;;;;;-147.17;100.00;59696.56;5033558;28;50908;-54
2021/06/14 01:14:51;;;;;;;;;8.00;8.00;;;;;-147.17;100.00;59696.56;5032799;28;51126;-56
2021/06/14 01:17:42;;;;;;;;;7.00;7.00;;;;;-147.17;100.00;59696.56;5033147;28;51856;-54
2021/06/14 01:20:48;;;;;;;;;7.67;7.33;;;;;-147.17;100.00;59696.56;5029679;28;51078;-54
2021/06/14 01:23:41;;;;;;;;;8.00;8.00;;;;;-147.17;100.00;59696.56;5032027;28;51114;-54
2021/06/14 01:26:21;;;;;;;;;9.00;9.00;;;;;-147.17;100.00;59696.56;5033487;28;51358;-53
2021/06/14 01:28:52;;;;;;;;;7.67;7.00;;;;;-147.17;100.00;59696.56;5032677;28;50911;-51
2021/06/14 01:31:19;;;;;;;;;9.67;8.33;;;;;-147.17;100.00;59696.56;5033137;28;51206;-53
2021/06/14 01:33:45;;;;;;;;;10.00;9.67;;;;;-147.17;100.00;59696.56;5032580;28;51090;-51
2021/06/14 01:36:17;;;;;;;;;11.00;10.33;;;;;-147.17;100.00;59696.56;5033327;28;51205;-50
2021/06/14 01:38:45;;;;;;;;;11.00;10.00;;;;;-147.17;100.00;59696.56;5030450;28;51229;-52
2021/06/14 01:41:13;;;;;;;;;10.00;9.00;;;;;-147.17;100.00;59696.56;5031523;28;51118;-50
2021/06/14 01:43:40;;;;;;;;;11.00;11.00;;;;;-147.17;100.00;59696.56;5032913;28;51149;-52
2021/06/14 01:46:16;;;;;;;;;8.33;7.33;;;;;-147.17;100.00;59696.56;5032904;28;51102;-54
2021/06/14 01:48:43;;;;;;;;;9.33;8.67;;;;;-147.17;100.00;59696.56;5031998;28;51042;-53
2021/06/14 01:51:11;;;;;;;;;8.67;7.67;;;;;-147.17;100.00;59696.56;5032558;28;51193;-50
2021/06/14 01:53:37;;;;;;;;;9.00;8.67;;;;;-147.17;100.00;59696.56;5031292;28;51185;-52
2021/06/14 01:56:05;;;;;;;;;8.33;8.33;;;;;-147.17;100.00;59696.56;5030302;28;51034;-51
2021/06/14 01:58:32;;;;;;;;;9.00;8.67;;;;;-147.17;100.00;59696.56;5031351;28;50937;-55
2021/06/14 02:00:59;;;;;;;;;8.00;8.00;;;;;-147.17;100.00;59696.56;5032535;28;51153;-52
2021/06/14 02:03:26;;;;;;;;;8.00;7.67;;;;;-147.17;100.00;59696.56;5031528;28;51157;-53
2021/06/14 02:05:52;;;;;;;;;8.00;8.00;;;;;-147.17;100.00;59696.56;5032683;28;51123;-50
2021/06/14 02:08:20;;;;;;;;;6.00;6.00;;;;;-147.17;100.00;59696.56;5032321;28;52026;-52
2021/06/14 02:10:48;;;;;;;;;8.00;7.67;;;;;-147.17;100.00;59696.56;5032216;28;50880;-52
2021/06/14 02:13:15;;;;;;;;;8.33;7.67;;;;;-147.17;100.00;59696.56;5029066;28;52010;-54
2021/06/14 02:15:40;;;;;;;;;7.33;7.33;;;;;-147.17;100.00;59696.56;5032627;28;50989;-53
2021/06/14 02:18:09;;;;;;;;;6.67;6.67;;;;;-147.17;100.00;59696.56;5032207;28;51018;-50
2021/06/14 02:20:35;;;;;;;;;6.33;5.33;;;;;-147.17;100.00;59696.56;5032790;28;50948;-49
2021/06/14 02:23:01;;;;;;;;;8.67;7.67;;;;;-147.17;100.00;59696.56;5032422;28;51116;-50
2021/06/14 02:25:27;;;;;;;;;7.00;7.00;;;;;-147.17;100.00;59696.56;5032702;28;51153;-49
2021/06/14 02:27:53;;;;;;;;;6.67;6.67;;;;;-147.17;100.00;59696.56;5031713;28;51878;-51
2021/06/14 02:30:28;;;;;;;;;8.00;8.00;;;;;-147.17;100.00;59696.56;5028601;28;51089;-51
2021/06/14 02:32:55;;;;;;;;;6.00;6.00;;;;;-147.17;100.00;59696.56;5031912;28;51173;-54
2021/06/14 02:35:23;;;;;;;;;8.33;7.00;;;;;-147.17;100.00;59696.56;5032671;28;51108;-53
2021/06/14 02:37:54;;;;;;;;;7.00;7.00;;;;;-147.17;100.00;59696.56;5031814;28;51091;-53
2021/06/14 02:40:24;;;;;;;;;6.00;6.00;;;;;-147.17;100.00;59696.56;5032351;28;51039;-49
2021/06/14 02:42:50;;;;;;;;;7.33;7.33;;;;;-147.17;100.00;59696.56;5030839;28;50983;-53
2021/06/14 02:45:16;;;;;;;;;7.00;6.33;;;;;-147.17;100.00;59696.56;5029901;28;51152;-50
2021/06/14 02:47:44;;;;;;;;;6.00;6.00;;;;;-147.17;100.00;59696.56;5030495;28;50950;-52
2021/06/14 02:50:10;;;;;;;;;7.67;7.67;;;;;-147.17;100.00;59696.56;5032084;28;50994;-51
2021/06/14 02:52:38;;;;;;;;;8.00;8.00;;;;;-147.17;100.00;59696.56;5031608;28;51180;-51
2021/06/14 02:55:15;;;;;;;;;8.00;8.00;;;;;-147.17;100.00;59696.56;5035926;28;51208;-52
2021/06/14 02:57:45;;;;;;;;;6.67;6.00;;;;;-147.17;100.00;59696.56;5035170;28;51739;-53
2021/06/14 03:00:12;;;;;;;;;8.00;8.00;;;;;-147.17;100.00;59696.56;5035595;28;51153;-50
2021/06/14 03:02:39;;;;;;;;;7.00;6.00;;;;;-147.17;100.00;59696.56;5032104;28;51136;-51
2021/06/14 03:05:05;;;;;;;;;8.33;7.33;;;;;-147.17;100.00;59696.56;5028612;28;51467;-51
2021/06/14 03:07:31;;;;;;;;;9.33;7.00;;;;;-147.17;100.00;59696.56;5035231;28;50965;-52
2021/06/14 03:09:56;;;;;;;;;7.00;7.00;;;;;-147.17;100.00;59696.56;5035429;28;51199;-55
2021/06/14 03:12:25;;;;;;;;;6.00;5.67;;;;;-147.17;100.00;59696.56;5035291;28;51031;-53
2021/06/14 03:14:51;;;;;;;;;8.00;7.00;;;;;-147.17;100.00;59696.56;5035730;28;50907;-53
2021/06/14 03:17:17;;;;;;;;;8.00;7.00;;;;;-147.17;100.00;59696.56;5035196;28;51989;-53
2021/06/14 03:19:46;;;;;;;;;7.00;7.00;;;;;-147.17;100.00;59696.56;5035196;28;51025;-51
2021/06/14 03:22:11;;;;;;;;;9.00;7.33;;;;;-147.17;100.00;59696.56;5031356;28;50956;-54
2021/06/14 03:24:39;;;;;;;;;7.00;6.00;;;;;-147.17;100.00;59696.56;5035240;28;52260;-51
2021/06/14 03:27:05;;;;;;;;;7.00;7.00;;;;;-147.17;100.00;59696.56;5035033;28;51705;-52
2021/06/14 03:29:32;;;;;;;;;7.67;6.67;;;;;-147.17;100.00;59696.56;5034646;28;51384;-51
2021/06/14 03:31:58;;;;;;;;;10.00;9.67;;;;;-147.17;100.00;59696.56;5034293;28;51113;-52
2021/06/14 03:34:27;;;;;;;;;8.00;7.50;;;;;-147.17;100.00;59696.56;5033785;28;51143;-52
2021/06/14 03:36:54;;;;;;;;;9.00;9.00;;;;;-147.17;100.00;59696.56;5033010;28;51950;-49
2021/06/14 03:39:20;;;;;;;;;6.33;5.67;;;;;-147.17;100.00;59696.56;5034662;28;51051;-51
2021/06/14 03:41:47;;;;;;;;;7.67;7.33;;;;;-147.17;100.00;59696.56;5031104;28;51159;-48
2021/06/14 03:44:15;;;;;;;;;8.33;8.00;;;;;-147.17;100.00;59696.56;5034936;28;51271;-54
2021/06/14 03:46:41;;;;;;;;;7.67;7.00;;;;;-147.17;100.00;59696.56;5034486;28;51845;-50
2021/06/14 03:49:07;;;;;;;;;8.00;7.00;;;;;-147.17;100.00;59696.56;5033083;28;51184;-50
2021/06/14 03:51:33;;;;;;;;;8.33;8.33;;;;;-147.17;100.00;59696.56;5034264;28;51083;-53
2021/06/14 03:53:59;;;;;;;;;7.33;7.00;;;;;-147.17;100.00;59696.56;5034541;28;52022;-53
2021/06/14 03:56:27;;;;;;;;;7.33;7.33;;;;;-147.17;100.00;59696.56;5034115;28;51938;-52
2021/06/14 03:58:53;;;;;;;;;6.67;6.67;;;;;-147.17;100.00;59696.56;5030852;28;51113;-53
2021/06/14 04:01:19;;;;;;;;;11.00;9.67;;;;;-147.17;100.00;59696.56;5033082;28;51013;-53
2021/06/14 04:03:53;;;;;;;;;12.00;11.25;;;;;-147.17;100.00;59696.56;5033856;28;50985;-52
2021/06/14 04:06:18;;;;;;;;;9.33;8.33;;;;;-147.17;100.00;59696.56;5033893;28;52879;-51
2021/06/14 04:08:43;;;;;;;;;9.50;9.00;;;;;-147.17;100.00;59696.56;5034101;28;50963;-53
2021/06/14 04:11:09;;;;;;;;;9.00;9.00;;;;;-147.17;100.00;59696.56;5034320;28;50913;-51
2021/06/14 04:13:34;;;;;;;;;7.00;7.00;;;;;-147.17;100.00;59696.56;5034441;28;50912;-54
2021/06/14 04:15:59;;;;;;;;;7.67;7.33;;;;;-147.17;100.00;59696.56;5033884;28;52648;-52
2021/06/14 04:18:25;;;;;;;;;7.67;7.33;;;;;-147.17;100.00;59696.56;5020602;28;50995;-53
2021/06/14 04:20:50;;;;;;;;;8.00;7.33;;;;;-147.17;100.00;59696.56;5034308;28;50926;-53
2021/06/14 04:23:15;;;;;;;;;10.33;9.67;;;;;-147.17;100.00;59696.56;5033595;28;51166;-52
2021/06/14 04:25:41;;;;;;;;;8.67;8.67;;;;;-147.17;100.00;59696.56;5033706;28;51233;-52
2021/06/14 04:28:08;;;;;;;;;8.33;8.33;;;;;-147.17;100.00;59696.56;5033848;28;50979;-53
2021/06/14 04:30:35;;;;;;;;;9.00;8.67;;;;;-147.17;100.00;59696.56;5034136;28;51060;-53
2021/06/14 04:33:00;;;;;;;;;9.00;8.67;;;;;-147.17;100.00;59696.56;5033989;28;51333;-53
2021/06/14 04:35:26;;;;;;;;;12.00;10.67;;;;;-147.17;100.00;59696.56;5033995;28;51932;-53
2021/06/14 04:37:51;;;;;;;;;14.75;13.50;;;;;-147.17;100.00;59696.56;5033826;28;51084;-49
2021/06/14 04:40:16;;;;;;;;;15.00;13.00;;;;;-147.17;100.00;59696.56;5034277;28;51137;-53
2021/06/14 04:42:42;;;;;;;;;13.00;11.67;;;;;-147.17;100.00;59696.56;5034015;28;51485;-51
2021/06/14 04:45:08;;;;;;;;;9.67;9.33;;;;;-147.17;100.00;59696.56;5033914;28;51041;-52
2021/06/14 04:47:33;;;;;;;;;8.67;8.33;;;;;-147.17;100.00;59696.56;5029531;28;51237;-49
2021/06/14 04:50:01;;;;;;;;;12.33;10.33;;;;;-147.17;100.00;59696.56;5025063;28;51084;-50
2021/06/14 04:52:26;;;;;;;;;10.00;9.67;;;;;-147.17;100.00;59696.56;5029048;28;51056;-53
2021/06/14 04:54:52;;;;;;;;;10.67;10.33;;;;;-147.17;100.00;59696.56;5033034;28;51142;-53
2021/06/14 04:57:17;;;;;;;;;8.33;8.33;;;;;-147.17;100.00;59696.56;5033717;28;51136;-52
2021/06/14 04:59:43;;;;;;;;;10.67;10.67;;;;;-147.17;100.00;59696.56;5032133;28;51091;-51
2021/06/14 05:02:09;;;;;;;;;10.67;9.00;;;;;-147.17;100.00;59696.56;5032900;28;51323;-50
2021/06/14 05:04:34;;;;;;;;;11.00;8.67;;;;;-147.17;100.00;59696.56;5033219;28;51823;-52
2021/06/14 05:06:59;;;;;;;;;9.00;9.00;;;;;-147.17;100.00;59696.56;5027079;28;51361;-53
2021/06/14 05:09:25;;;;;;;;;9.33;8.33;;;;;-147.17;100.00;59696.56;5024785;28;51624;-51
2021/06/14 05:11:50;;;;;;;;;8.33;8.33;;;;;-147.17;100.00;59696.56;5028641;28;51646;-52
2021/06/14 05:14:15;;;;;;;;;9.33;8.67;;;;;-147.17;100.00;59696.56;5030174;28;51164;-53
2021/06/14 05:16:42;;;;;;;;;9.67;8.67;;;;;-147.17;100.00;59696.56;5031120;28;51030;-54
2021/06/14 05:19:08;;;;;;;;;9.00;9.00;;;;;-147.17;100.00;59696.56;5026401;28;51062;-54
2021/06/14 05:21:33;;;;;;;;;11.00;11.00;;;;;-147.17;100.00;59696.56;5032215;28;51310;-55
2021/06/14 05:23:58;;;;;;;;;13.00;12.67;;;;;-147.17;100.00;59696.56;5022100;28;51737;-51
2021/06/14 05:26:24;;;;;;;;;10.33;9.67;;;;;-147.17;100.00;59696.56;5025808;28;50976;-52
2021/06/14 05:28:49;;;;;;;;;8.00;8.00;;;;;-147.17;100.00;59696.56;5030974;28;51154;-50
2021/06/14 05:31:14;;;;;;;;;7.67;7.67;;;;;-147.17;100.00;59696.56;5031609;28;51001;-53
2021/06/14 05:33:40;;;;;;;;;10.33;10.33;;;;;-147.17;100.00;59696.56;5030814;28;51502;-51
2021/06/14 05:36:06;;;;;;;;;11.00;8.33;;;;;-147.17;100.00;59696.56;5031210;28;50990;-54
2021/06/14 05:38:31;;;;;;;;;28.00;26.25;;;;;-147.17;100.00;59696.56;5028546;28;51143;-54
2021/06/14 05:40:56;;;;;;;;;8.67;8.00;;;;;-147.17;100.00;59696.56;5032637;28;51382;-54
2021/06/14 05:43:22;;;;;;;;;11.33;10.00;;;;;-147.17;100.00;59696.56;5032406;28;51988;-54
2021/06/14 05:45:47;;;;;;;;;8.67;8.67;;;;;-147.17;100.00;59696.56;5032959;28;51013;-55
2021/06/14 05:48:13;;;;;;;;;11.00;9.33;;;;;-147.17;100.00;59696.56;5032738;28;52154;-54
2021/06/14 05:50:39;;;;;;;;;9.00;9.00;;;;;-147.17;100.00;59696.56;5029499;28;51030;-55
2021/06/14 05:53:04;;;;;;;;;9.00;9.00;;;;;-147.17;100.00;59696.56;5032051;28;51144;-54
2021/06/14 05:55:30;;;;;;;;;10.00;9.33;;;;;-147.17;100.00;59696.56;5029532;28;51029;-54
2021/06/14 05:57:56;;;;;;;;;8.67;8.00;;;;;-147.17;100.00;59696.56;5027489;28;51144;-54
2021/06/14 06:00:22;;;;;;;;;10.33;9.00;;;;;-147.17;100.00;59696.56;5027506;28;51278;-53
2021/06/14 06:02:47;;;;;;;;;12.33;12.00;;;;;-147.17;100.00;59696.56;5030778;28;51939;-55
2021/06/14 06:05:13;;;;;;;;;11.00;9.00;;;;;-147.17;100.00;59696.56;5032725;28;51007;-55
2021/06/14 06:07:38;;;;;;;;;8.00;7.00;;;;;-147.17;100.00;59696.56;5032424;28;51180;-55
2021/06/14 06:10:06;;;;;;;;;8.00;8.00;;;;;-147.17;100.00;59696.56;5029582;28;51458;-54
2021/06/14 06:12:31;;;;;;;;;11.33;10.33;;;;;-147.17;100.00;59696.56;5054018;28;52897;-54
2021/06/14 06:14:57;;;;;;;;;10.67;10.67;;;;;-147.17;100.00;59696.56;5032017;28;51303;-54
2021/06/14 06:17:22;;;;;;;;;7.00;7.00;;;;;-147.17;100.00;59696.56;5031956;28;51178;-54
2021/06/14 06:19:48;;;;;;;;;10.67;10.00;;;;;-147.17;100.00;59696.56;5032523;28;50918;-54
2021/06/14 06:22:14;;;;;;;;;11.33;10.33;;;;;-147.17;100.00;59696.56;5031907;28;52564;-51
2021/06/14 06:24:39;;;;;;;;;12.67;11.67;;;;;-147.17;100.00;59696.56;5031567;28;50995;-53
2021/06/14 06:27:05;;;;;;;;;9.67;9.67;;;;;-147.17;100.00;59696.56;5030228;28;50979;-53
2021/06/14 06:29:30;;;;;;;;;10.00;8.00;;;;;-147.17;100.00;59696.56;5033739;28;51447;-55
2021/06/14 06:31:56;;;;;;;;;8.67;8.33;;;;;-147.17;100.00;59696.56;5027416;28;51904;-54
2021/06/14 06:34:22;;;;;;;;;12.33;11.67;;;;;-147.17;100.00;59696.56;5033710;28;51097;-55
2021/06/14 06:36:47;;;;;;;;;8.33;8.33;;;;;-147.17;100.00;59696.56;5034687;28;50919;-55
2021/06/14 06:39:12;;;;;;;;;9.33;9.33;;;;;-147.17;100.00;59696.56;5033696;28;51051;-54
2021/06/14 06:41:38;;;;;;;;;9.00;8.00;;;;;-147.17;100.00;59696.56;5025402;28;52099;-52
2021/06/14 06:44:03;;;;;;;;;8.50;7.75;;;;;-147.17;100.00;59696.56;5032160;28;51237;-52
2021/06/14 06:46:29;;;;;;;;;9.67;9.00;;;;;-147.17;100.00;59696.56;5016993;28;50936;-54
2021/06/14 06:48:54;;;;;;;;;8.00;7.67;;;;;-147.17;100.00;59696.56;5034356;28;51181;-55
2021/06/14 06:51:19;;;;;;;;;8.33;7.00;;;;;-147.17;100.00;59696.56;5033123;28;51697;-53
2021/06/14 06:53:45;;;;;;;;;6.75;6.75;;;;;-147.17;100.00;59696.56;5034810;28;50879;-53
2021/06/14 06:56:10;;;;;;;;;8.50;7.75;;;;;-147.17;100.00;59696.56;5034976;28;51043;-55
2021/06/14 06:58:36;;;;;;;;;8.75;8.75;;;;;-147.17;100.00;59696.56;5035034;28;51137;-53
2021/06/14 07:01:01;;;;;;;;;12.50;12.50;;;;;-147.17;100.00;59696.56;5033044;28;51621;-55
2021/06/14 07:03:27;;;;;;;;;9.00;9.00;;;;;-147.17;100.00;59696.56;5038501;28;51214;-53
2021/06/14 07:05:53;;;;;;;;;8.50;8.50;;;;;-147.17;100.00;59696.56;5035066;28;51084;-54
2021/06/14 07:08:19;;;;;;;;;6.75;6.75;;;;;-147.17;100.00;59696.56;5034763;28;50962;-54
2021/06/14 07:10:44;;;;;;;;;8.25;8.25;;;;;-147.17;100.00;59696.56;5034192;28;51962;-54
2021/06/14 07:13:12;;;;;;;;;7.00;7.00;;;;;-147.17;100.00;59696.56;5034562;28;51206;-55
2021/06/14 07:15:37;;;;;;;;;7.75;7.75;;;;;-147.17;100.00;59696.56;5034580;28;51153;-53
2021/06/14 07:18:03;;;;;;;;;7.75;7.25;;;;;-147.17;100.00;59696.56;5033692;28;50833;-52
2021/06/14 07:20:29;;;;;;;;;9.00;8.25;;;;;-147.17;100.00;59696.56;5033141;28;51099;-54
2021/06/14 07:22:55;;;;;;;;;7.25;7.25;;;;;-147.17;100.00;59696.56;5033346;28;50957;-54
2021/06/14 07:25:21;;;;;;;;;7.50;7.25;;;;;-147.17;100.00;59696.56;5023074;28;50971;-55
2021/06/14 07:27:47;;;;;;;;;8.25;8.25;;;;;-147.17;100.00;59696.56;5034479;28;51117;-54
2021/06/14 07:30:14;;;;;;;;;10.75;10.75;;;;;-147.17;100.00;59696.56;5034033;28;52516;-55
2021/06/14 07:32:43;;;;;;;;;8.25;8.25;;;;;-147.17;100.00;59696.56;5034017;28;51187;-54
2021/06/14 07:35:10;;;;;;;;;8.00;8.00;;;;;-147.17;100.00;59696.56;5034493;28;51115;-55
2021/06/14 07:37:36;;;;;;;;;8.25;8.25;;;;;-147.17;100.00;59696.56;5034736;28;50949;-55
2021/06/14 07:40:07;;;;;;;;;9.25;9.25;;;;;-147.17;100.00;59696.56;5032422;28;51975;-55
2021/06/14 07:42:32;;;;;;;;;8.25;8.25;;;;;-147.17;100.00;59696.56;5033500;28;50809;-56
2021/06/14 07:44:58;;;;;;;;;8.00;8.00;;;;;-147.17;100.00;59696.56;5034596;28;50878;-54
2021/06/14 07:47:23;;;;;;;;;10.75;10.50;;;;;-147.17;100.00;59696.56;5034453;28;51267;-54
2021/06/14 07:49:49;;;;;;;;;10.50;10.25;;;;;-147.17;100.00;59696.56;5033923;28;51613;-53
2021/06/14 07:52:14;;;;;;;;;9.00;9.00;;;;;-147.17;100.00;59696.56;5034165;28;50947;-55
2021/06/14 07:54:39;;;;;;;;;11.25;10.50;;;;;-147.17;100.00;59696.56;5034448;28;50885;-55
2021/06/14 07:57:06;;;;;;;;;7.75;7.75;;;;;-147.17;100.00;59696.56;5029840;28;51035;-54
2021/06/14 07:59:32;;;;;;;;;7.00;6.75;;;;;-147.17;100.00;59696.56;5033521;28;51117;-56
2021/06/14 08:01:59;;;;;;;;;8.50;8.00;;;;;-147.17;100.00;59696.56;5033272;28;51208;-56
2021/06/14 08:04:24;;;;;;;;;10.00;8.00;;;;;-147.17;100.00;59696.56;5033284;28;51168;-55
2021/06/14 08:06:50;;;;;;;;;7.75;7.75;;;;;-147.17;100.00;59696.56;5033993;28;50946;-56
2021/06/14 08:09:18;;;;;;;;;8.00;8.00;;;;;-147.17;100.00;59696.56;5031718;28;51058;-54
2021/06/14 08:11:45;;;;;;;;;8.25;7.75;;;;;-147.17;100.00;59696.56;5033439;28;50903;-55
2021/06/14 08:14:11;;;;;;;;;9.00;9.00;;;;;-147.17;100.00;59696.56;5031806;28;51169;-55
2021/06/14 08:16:42;;;;;;;;;8.00;8.00;;;;;-147.17;100.00;59696.56;5033667;28;51144;-56
2021/06/14 08:19:13;;;;;;;;;14.75;14.50;;;;;-147.17;100.00;59696.56;5032582;28;51963;-55
2021/06/14 08:22:07;;;;;;;;;8.50;8.00;;;;;-147.17;100.00;59696.56;5033224;28;50903;-54
2021/06/14 08:27:14;;;;;;;;;8.00;8.00;;;;;-147.17;100.00;59696.56;5031888;28;51082;-56
2021/06/14 08:29:39;;;;;;;;;12.50;11.25;;;;;-147.17;100.00;59696.56;5014821;28;53480;-55
2021/06/14 08:32:05;;;;;;;;;8.75;8.25;;;;;-147.17;100.00;59696.56;5064967;28;51047;-53
2021/06/14 08:34:30;;;;;;;;;7.25;7.00;;;;;-147.17;100.00;59696.56;5032170;28;51178;-53
2021/06/14 08:36:56;;;;;;;;;8.75;8.75;;;;;-147.17;100.00;59696.56;5033529;28;51379;-52
2021/06/14 08:39:21;;;;;;;;;7.75;7.00;;;;;-147.17;100.00;59696.56;5033415;28;50818;-55
2021/06/14 08:41:47;;;;;;;;;9.00;8.25;;;;;-147.17;100.00;59696.56;5033140;28;51053;-55
2021/06/14 08:44:13;;;;;;;;;9.00;8.25;;;;;-147.17;100.00;59696.56;5033293;28;51042;-55
2021/06/14 08:46:39;;;;;;;;;7.50;6.75;;;;;-147.17;100.00;59696.56;5033005;28;51325;-54
2021/06/14 08:49:05;;;;;;;;;7.50;7.50;;;;;-147.17;100.00;59696.56;5032777;28;51001;-56
2021/06/14 08:51:31;;;;;;;;;7.50;7.25;;;;;-147.17;100.00;59696.56;5032001;28;50928;-56
2021/06/14 08:53:56;;;;;;;;;10.50;9.50;;;;;-147.17;100.00;59696.56;5033274;28;51025;-55
2021/06/14 08:56:24;;;;;;;;;9.00;9.00;;;;;-147.17;100.00;59696.56;5031293;28;51145;-54
2021/06/14 08:58:51;;;;;;;;;10.50;10.50;;;;;-147.17;100.00;59696.56;5032850;28;52860;-56
2021/06/14 09:01:17;;;;;;;;;8.50;7.50;;;;;-147.17;100.00;59696.56;5032916;28;50875;-55
2021/06/14 09:03:43;;;;;;;;;7.00;7.00;;;;;-147.17;100.00;59696.56;5032789;28;51095;-55
2021/06/14 09:06:08;;;;;;;;;6.75;6.75;;;;;-147.17;100.00;59696.56;5033422;28;51376;-56
2021/06/14 09:08:34;;;;;;;;;9.25;7.50;;;;;-147.17;100.00;59696.56;5033058;28;52434;-55
2021/06/14 09:10:59;;;;;;;;;9.25;9.25;;;;;-147.17;100.00;59696.56;5032750;28;51061;-55
2021/06/14 09:13:28;;;;;;;;;8.00;8.00;;;;;-147.17;100.00;59696.56;5033112;28;51133;-55
2021/06/14 09:16:04;;;;;;;;;6.00;6.00;;;;;-147.17;100.00;59696.56;5033085;28;51219;-55
2021/06/14 09:18:30;;;;;;;;;6.75;6.00;;;;;-147.17;100.00;59696.56;5032431;28;52208;-55
2021/06/14 09:21:16;;;;;;;;;8.25;7.50;;;;;-147.17;100.00;59696.56;5031156;28;51209;-54
2021/06/14 09:23:51;;;;;;;;;7.50;7.00;;;;;-147.17;100.00;59696.56;5032416;28;51130;-56
2021/06/14 09:26:28;;;;;;;;;7.25;7.25;;;;;-147.17;100.00;59696.56;5032716;28;51301;-56
2021/06/14 09:28:57;;;;;;;;;8.00;7.25;;;;;-147.17;100.00;59696.56;5031873;28;52843;-56
2021/06/14 09:31:26;;;;;;;;;8.75;7.00;;;;;-147.17;100.00;59696.56;5032384;28;51165;-57
2021/06/14 09:33:51;;;;;;;;;9.00;7.75;;;;;-147.17;100.00;59696.56;5032504;28;50958;-57
2021/06/14 09:36:20;;;;;;;;;6.25;6.25;;;;;-147.17;100.00;59696.56;5032915;28;51354;-56
2021/06/14 09:38:46;;;;;;;;;11.00;10.00;;;;;-147.17;100.00;59696.56;5032295;28;51110;-56
2021/06/14 09:41:15;;;;;;;;;6.50;5.75;;;;;-147.17;100.00;59696.56;5032616;28;50991;-56
2021/06/14 09:43:43;;;;;;;;;6.25;6.00;;;;;-147.17;100.00;59696.56;5032456;28;50817;-56
2021/06/14 09:46:25;;;;;;;;;5.75;5.75;;;;;-147.17;100.00;59696.56;5022515;28;51042;-56
2021/06/14 09:48:51;;;;;;;;;8.00;8.00;;;;;-147.17;100.00;59696.56;5031681;28;51963;-57
2021/06/14 09:51:18;;;;;;;;;7.25;7.00;;;;;-147.17;100.00;59696.56;5032216;28;50912;-56
2021/06/14 09:53:52;;;;;;;;;7.00;6.50;;;;;-147.17;100.00;59696.56;5047685;28;51258;-56
2021/06/14 09:56:26;;;;;;;;;7.50;7.00;;;;;-147.17;100.00;59696.56;5032429;28;51348;-55
2021/06/14 09:58:54;;;;;;;;;7.00;7.00;;;;;-147.17;100.00;59696.56;5015021;28;52024;-57
2021/06/14 10:01:34;;;;;;;;;5.50;5.25;;;;;-147.17;100.00;59696.56;5016721;28;51100;-57
2021/06/14 10:04:07;;;;;;;;;6.25;6.25;;;;;-147.17;100.00;59696.56;5018569;28;51398;-56
2021/06/14 10:06:36;;;;;;;;;9.00;8.50;;;;;-147.17;100.00;59696.56;5016467;28;50959;-56
2021/06/14 10:09:08;;;;;;;;;6.00;6.00;;;;;-147.17;100.00;59696.56;5016876;28;52835;-57
2021/06/14 10:11:36;;;;;;;;;5.50;5.50;;;;;-147.17;100.00;59696.56;5049632;28;51222;-58
2021/06/14 10:14:07;;;;;;;;;7.50;7.50;;;;;-147.17;100.00;59696.56;5012316;28;51141;-56
2021/06/14 10:16:36;;;;;;;;;7.25;7.25;;;;;-147.17;100.00;59696.56;5019311;28;51206;-56
2021/06/14 10:19:01;;;;;;;;;6.00;6.00;;;;;-147.17;100.00;59696.56;5020079;28;52933;-56
2021/06/14 10:21:39;;;;;;;;;8.00;8.00;;;;;-147.17;100.00;59696.56;5021035;28;51204;-56
2021/06/14 10:24:09;;;;;;;;;6.75;6.75;;;;;-147.17;100.00;59696.56;5016347;28;51423;-57
2021/06/14 10:26:38;;;;;;;;;6.00;6.00;;;;;-147.17;100.00;59696.56;5020056;28;51452;-56
2021/06/14 10:29:06;;;;;;;;;5.00;5.00;;;;;-147.17;100.00;59696.56;5019517;28;52243;-57
2021/06/14 10:31:34;;;;;;;;;7.00;6.50;;;;;-147.17;100.00;59696.56;5014993;28;51249;-58
2021/06/14 10:34:01;;;;;;;;;6.00;6.00;;;;;-147.17;100.00;59696.56;5015064;28;51336;-56
2021/06/14 10:36:27;;;;;;;;;6.25;5.50;;;;;-147.17;100.00;59696.56;5017540;28;51535;-57
2021/06/14 10:38:54;;;;;;;;;6.50;6.50;;;;;-147.17;100.00;59696.56;5015650;28;52877;-58
2021/06/14 10:41:21;;;;;;;;;7.00;7.00;;;;;-147.17;100.00;59696.56;5015370;28;51176;-57
2021/06/14 10:43:48;;;;;;;;;7.00;6.75;;;;;-147.17;100.00;59696.56;5011624;28;52599;-57
2021/06/14 10:46:15;;;;;;;;;5.50;5.50;;;;;-147.17;100.00;59696.56;5014473;28;52763;-56
2021/06/14 10:48:42;;;;;;;;;8.75;8.75;;;;;-147.17;100.00;59696.56;5011408;28;52545;-57
2021/06/14 10:51:14;;;;;;;;;5.25;5.00;;;;;-147.17;100.00;59696.56;5013213;28;50920;-57
2021/06/14 10:53:40;;;;;;;;;8.00;8.00;;;;;-147.17;100.00;59696.56;5014051;28;50965;-57
2021/06/14 10:56:06;;;;;;;;;7.00;7.00;;;;;-147.17;100.00;59696.56;5015880;28;51299;-57
2021/06/14 10:58:31;;;;;;;;;7.00;7.00;;;;;-147.17;100.00;59696.56;5017311;28;52103;-57
2021/06/14 11:01:07;;;;;;;;;5.50;5.00;;;;;-147.17;100.00;59696.56;5012398;28;51360;-57
2021/06/14 11:03:38;;;;;;;;;7.00;6.50;;;;;-147.17;100.00;59696.56;5010920;28;51238;-57
2021/06/14 11:06:14;;;;;;;;;5.50;5.50;;;;;-147.17;100.00;59696.56;5016116;28;51708;-57
2021/06/14 11:08:40;;;;;;;;;5.00;5.00;;;;;-147.17;100.00;59696.56;5017741;28;51981;-57
2021/06/14 11:11:06;;;;;;;;;4.25;4.25;;;;;-147.17;100.00;59696.56;5015266;28;51069;-57